Flugmeteorologie

METAR


Letzte Änderung: 21 Jan 2020 05:50:00
095
SAHU41 HASM 210600
METAR LHSM 210545Z AUTO 00000KT 0400 FZFG VV001 M04/M04 Q1045

TAF


Letzte Änderung: 21 Jan 2020 05:25:00
094
FCHU99 LHSM 210500 RRA
TAF LHSM 210515Z 2106/2115 18005KT 0350 FZFG OVC001
TEMPO 2106/2109 0800 -FZDZ OVC005
BECMG 2109/2112 2500 BR BKN010
BECMG 2112/2115 6000 NSW SCT010